Time;durP1;ratioP1;P1;durP2;ratioP2;P2;SDS_P1;SDS_P2;PMS_P1;PMS_P2;Temp;Humidity;BMP_temperature;BMP_pressure;BME280_temperature;BME280_humidity;BME280_pressure;Samples;Min_cycle;Max_cycle;Signal;HPM_P1;HPM_P2
2021/01/28 00:00:24;;;;;;;14.20;7.35;;;4.00;1.00;;;;;;5089297;28;20195;-76
2021/01/28 00:02:49;;;;;;;10.27;5.85;;;4.00;1.00;;;;;;5066589;28;20164;-76
2021/01/28 00:05:16;;;;;;;10.87;5.17;;;4.00;1.00;;;;;;5054077;28;20156;-77
2021/01/28 00:07:42;;;;;;;10.32;5.93;;;;;;;;;;5053643;28;20280;-77
2021/01/28 00:10:08;;;;;;;11.77;5.55;;;4.00;1.00;;;;;;5052422;28;20182;-77
2021/01/28 00:12:34;;;;;;;17.05;6.35;;;;;;;;;;5053510;28;20191;-77
2021/01/28 00:15:00;;;;;;;12.70;6.73;;;4.00;1.00;;;;;;5053746;28;20152;-77
2021/01/28 00:17:26;;;;;;;12.07;7.20;;;;;;;;;;5053623;28;20426;-78
2021/01/28 00:19:52;;;;;;;16.03;6.43;;;;;;;;;;5053828;28;20558;-77
2021/01/28 00:22:18;;;;;;;7.97;5.17;;;;;;;;;;5053333;28;20403;-77
2021/01/28 00:24:44;;;;;;;12.23;6.55;;;;;;;;;;5056570;28;20491;-77
2021/01/28 00:27:10;;;;;;;12.27;6.07;;;;;;;;;;5054883;28;20650;-77
2021/01/28 00:29:36;;;;;;;15.20;6.70;;;;;;;;;;5052895;28;20402;-77
2021/01/28 00:32:02;;;;;;;13.73;7.03;;;3.90;1.00;;;;;;5053486;28;20446;-77
2021/01/28 00:34:28;;;;;;;15.30;7.93;;;3.90;1.00;;;;;;5053452;28;20405;-76
2021/01/28 00:36:53;;;;;;;13.07;6.40;;;;;;;;;;5053177;28;20164;-76
2021/01/28 00:39:19;;;;;;;11.13;5.63;;;3.90;1.00;;;;;;5052701;28;20240;-76
2021/01/28 00:41:45;;;;;;;18.43;7.60;;;;;;;;;;5053141;28;20410;-76
2021/01/28 00:44:11;;;;;;;13.20;6.70;;;3.80;1.00;;;;;;5050978;28;20186;-76
2021/01/28 00:46:37;;;;;;;13.10;6.50;;;;;;;;;;5060348;28;20768;-76
2021/01/28 00:49:03;;;;;;;17.65;7.78;;;;;;;;;;5073398;28;20297;-76
2021/01/28 00:51:29;;;;;;;13.57;7.13;;;;;;;;;;5072176;28;20266;-76
2021/01/28 00:53:55;;;;;;;13.93;7.40;;;3.90;1.00;;;;;;5071638;28;20933;-76
2021/01/28 00:56:20;;;;;;;13.90;6.75;;;3.90;1.00;;;;;;5073007;28;20443;-76
2021/01/28 00:58:49;;;;;;;15.30;6.40;;;3.80;1.00;;;;;;5073053;28;20151;-76
2021/01/28 01:01:15;;;;;;;14.40;7.03;;;;;;;;;;5072967;28;20182;-76
2021/01/28 01:03:41;;;;;;;15.87;7.53;;;;;;;;;;5056889;28;20259;-76
2021/01/28 01:06:06;;;;;;;19.77;7.30;;;3.80;1.00;;;;;;5051979;28;20432;-76
2021/01/28 01:08:32;;;;;;;13.00;5.70;;;;;;;;;;5052754;28;20472;-76
2021/01/28 01:11:16;;;;;;;17.60;7.05;;;3.80;1.00;;;;;;5052763;28;20274;-76
2021/01/28 01:13:42;;;;;;;13.18;5.40;;;3.80;1.00;;;;;;5052333;28;20194;-76
2021/01/28 01:16:11;;;;;;;11.47;6.83;;;3.80;1.00;;;;;;5052946;28;20299;-76
2021/01/28 01:18:37;;;;;;;15.07;6.40;;;3.90;1.00;;;;;;5070181;28;20901;-76
2021/01/28 01:21:04;;;;;;;9.93;5.60;;;3.90;1.00;;;;;;5073304;28;20170;-77
2021/01/28 01:23:30;;;;;;;8.18;4.47;;;3.90;1.00;;;;;;5059167;28;20414;-77
2021/01/28 01:25:57;;;;;;;17.27;7.53;;;;;;;;;;5052717;28;20167;-77
2021/01/28 01:28:23;;;;;;;11.57;5.93;;;3.90;1.00;;;;;;5053101;28;20536;-77
2021/01/28 01:30:49;;;;;;;10.10;6.00;;;;;;;;;;5052655;28;20195;-77
2021/01/28 01:33:15;;;;;;;17.10;7.75;;;;;;;;;;5052496;28;20164;-77
2021/01/28 01:35:41;;;;;;;15.57;7.00;;;;;;;;;;5053006;28;20160;-76
2021/01/28 01:38:08;;;;;;;17.27;7.43;;;3.90;1.00;;;;;;5052419;28;20193;-77
2021/01/28 01:40:39;;;;;;;14.60;6.70;;;4.00;1.00;;;;;;5052288;28;20196;-77
2021/01/28 01:43:07;;;;;;;12.75;6.18;;;4.00;1.00;;;;;;5052370;28;20657;-76
2021/01/28 01:45:44;;;;;;;12.35;4.78;;;4.00;1.00;;;;;;5052111;28;20172;-76
2021/01/28 01:48:15;;;;;;;15.75;7.65;;;4.00;1.00;;;;;;5052480;28;20741;-76
2021/01/28 01:50:41;;;;;;;11.57;6.50;;;;;;;;;;5052836;28;20191;-76
2021/01/28 01:53:12;;;;;;;15.20;7.23;;;4.00;1.00;;;;;;5065434;28;20634;-76
2021/01/28 01:55:42;;;;;;;12.98;5.63;;;4.10;1.00;;;;;;5074598;28;20911;-76
2021/01/28 01:58:08;;;;;;;17.33;7.13;;;4.10;1.00;;;;;;5076126;28;20155;-76
2021/01/28 02:00:34;;;;;;;15.85;7.60;;;4.10;1.00;;;;;;5068269;28;20206;-76
2021/01/28 02:03:08;;;;;;;11.43;6.77;;;4.10;1.00;;;;;;5076180;28;20241;-76
2021/01/28 02:05:42;;;;;;;13.98;6.65;;;4.20;1.00;;;;;;5076333;28;20247;-76
2021/01/28 02:08:13;;;;;;;14.27;6.75;;;4.10;1.00;;;;;;5066874;28;20196;-76
2021/01/28 02:10:39;;;;;;;13.95;6.45;;;;;;;;;;5075945;28;20163;-76
2021/01/28 02:13:04;;;;;;;13.57;6.73;;;4.20;1.00;;;;;;5073443;28;20183;-76
2021/01/28 02:15:30;;;;;;;17.07;6.97;;;4.10;1.00;;;;;;5076002;28;20405;-76
2021/01/28 02:17:59;;;;;;;14.80;6.90;;;4.20;1.00;;;;;;5063774;28;20179;-76
2021/01/28 02:20:42;;;;;;;14.90;7.50;;;4.20;1.00;;;;;;5056034;28;20607;-77
2021/01/28 02:23:35;;;;;;;16.50;7.20;;;4.20;1.00;;;;;;5055497;28;20176;-77
2021/01/28 02:26:01;;;;;;;16.35;7.72;;;4.20;1.00;;;;;;5055664;28;20162;-77
2021/01/28 02:28:27;;;;;;;12.13;7.35;;;;;;;;;;5062747;28;20179;-77
2021/01/28 02:30:57;;;;;;;12.32;5.82;;;4.10;1.00;;;;;;5075896;28;20191;-76
2021/01/28 02:33:41;;;;;;;16.42;8.20;;;4.10;1.00;;;;;;5074311;28;20182;-76
2021/01/28 02:36:07;;;;;;;16.77;7.13;;;4.20;1.00;;;;;;5075708;28;20182;-76
2021/01/28 02:38:33;;;;;;;12.70;7.07;;;4.20;1.00;;;;;;5060637;28;20310;-76
2021/01/28 02:40:59;;;;;;;11.68;6.15;;;;;;;;;;5058281;28;20266;-76
2021/01/28 02:43:26;;;;;;;16.77;7.05;;;;;;;;;;5075330;28;20691;-76
2021/01/28 02:46:02;;;;;;;12.48;7.15;;;4.20;1.00;;;;;;5075230;28;20539;-76
2021/01/28 02:48:27;;;;;;;10.75;5.93;;;4.20;1.00;;;;;;5063961;28;20266;-76
2021/01/28 02:50:53;;;;;;;13.17;6.80;;;;;;;;;;5065593;28;20294;-77
2021/01/28 02:53:25;;;;;;;19.50;8.03;;;4.30;1.00;;;;;;5054997;28;20175;-77
2021/01/28 02:55:51;;;;;;;11.88;6.35;;;;;;;;;;5064011;28;20433;-76
2021/01/28 02:58:19;;;;;;;24.85;7.40;;;;;;;;;;5074432;28;20178;-76
2021/01/28 03:00:45;;;;;;;14.52;8.00;;;;;;;;;;5074862;28;20229;-76
2021/01/28 03:03:13;;;;;;;15.70;7.60;;;4.30;1.00;;;;;;5074962;28;20156;-77
2021/01/28 03:05:39;;;;;;;17.05;8.23;;;;;;;;;;5069660;28;20418;-77
2021/01/28 03:08:06;;;;;;;12.63;6.63;;;;;;;;;;5054259;28;20236;-77
2021/01/28 03:10:32;;;;;;;15.55;7.95;;;;;;;;;;5063190;28;20571;-77
2021/01/28 03:12:57;;;;;;;14.15;6.25;;;4.40;1.00;;;;;;5074701;28;20185;-77
2021/01/28 03:15:24;;;;;;;12.20;6.30;;;;;;;;;;5074588;28;20179;-77
2021/01/28 03:17:51;;;;;;;15.48;8.15;;;4.40;1.00;;;;;;5065446;28;20167;-77
2021/01/28 03:20:17;;;;;;;15.18;7.03;;;;;;;;;;5074836;28;20183;-76
2021/01/28 03:22:43;;;;;;;13.77;6.90;;;;;;;;;;5074675;28;20229;-76
2021/01/28 03:25:11;;;;;;;16.53;7.97;;;4.50;1.00;;;;;;5074507;28;20764;-76
2021/01/28 03:27:37;;;;;;;14.82;7.45;;;;;;;;;;5059943;28;20468;-76
2021/01/28 03:30:11;;;;;;;15.88;8.15;;;4.50;1.00;;;;;;5054466;28;20160;-76
2021/01/28 03:32:37;;;;;;;16.85;8.13;;;;;;;;;;5054180;28;20282;-76
2021/01/28 03:35:04;;;;;;;18.95;8.63;;;4.50;1.00;;;;;;5054502;28;20607;-77
2021/01/28 03:37:31;;;;;;;16.92;8.20;;;;;;;;;;5054244;28;20194;-77
2021/01/28 03:39:57;;;;;;;12.75;7.28;;;;;;;;;;5053950;28;20526;-77
2021/01/28 03:42:22;;;;;;;16.57;8.00;;;4.60;1.00;;;;;;5054302;28;20164;-77
2021/01/28 03:44:48;;;;;;;17.20;8.50;;;;;;;;;;5053967;28;20409;-77
2021/01/28 03:47:14;;;;;;;18.00;8.60;;;;;;;;;;5053882;28;20175;-77
2021/01/28 03:49:40;;;;;;;15.48;7.88;;;;;;;;;;5054020;28;20772;-77
2021/01/28 03:52:06;;;;;;;13.27;6.47;;;;;;;;;;5054242;28;20202;-76
2021/01/28 03:54:32;;;;;;;17.83;8.73;;;;;;;;;;5053917;28;20469;-76
2021/01/28 03:56:58;;;;;;;20.00;9.70;;;;;;;;;;5053739;28;20436;-76
2021/01/28 03:59:24;;;;;;;19.73;8.60;;;4.50;1.00;;;;;;5053777;28;20395;-76
2021/01/28 04:01:50;;;;;;;17.70;8.60;;;;;;;;;;5062837;28;20244;-76
2021/01/28 04:04:16;;;;;;;17.40;8.53;;;;;;;;;;5073697;28;20645;-76
2021/01/28 04:06:42;;;;;;;22.63;9.00;;;;;;;;;;5071736;28;20389;-77
2021/01/28 04:09:08;;;;;;;20.08;8.65;;;;;;;;;;5072313;28;20413;-77
2021/01/28 04:11:34;;;;;;;22.77;9.60;;;;;;;;;;5072070;28;20635;-77
2021/01/28 04:14:00;;;;;;;16.10;7.80;;;;;;;;;;5073488;28;20417;-77
2021/01/28 04:16:26;;;;;;;20.80;8.88;;;;;;;;;;5061181;28;20479;-77
2021/01/28 04:18:51;;;;;;;18.33;9.32;;;4.60;1.00;;;;;;5072206;28;20175;-77
2021/01/28 04:21:17;;;;;;;19.00;8.97;;;;;;;;;;5073499;28;20178;-77
2021/01/28 04:23:43;;;;;;;17.23;7.90;;;;;;;;;;5058195;28;20171;-77
2021/01/28 04:26:09;;;;;;;23.20;8.57;;;;;;;;;;5053327;28;20769;-77
2021/01/28 04:28:35;;;;;;;18.15;8.57;;;;;;;;;;5053270;28;20804;-77
2021/01/28 04:31:01;;;;;;;18.37;7.70;;;;;;;;;;5053484;28;20318;-78
2021/01/28 04:33:27;;;;;;;18.63;8.07;;;;;;;;;;5053263;28;20481;-78
2021/01/28 04:35:53;;;;;;;16.93;7.90;;;;;;;;;;5053546;28;20781;-76
2021/01/28 04:38:19;;;;;;;23.38;9.70;;;;;;;;;;5052884;28;20914;-76
2021/01/28 04:40:53;;;;;;;21.07;8.73;;;4.50;1.00;;;;;;5053049;28;20242;-76
2021/01/28 04:43:24;;;;;;;22.73;9.20;;;4.50;1.00;;;;;;5053016;28;20500;-76
2021/01/28 04:45:51;;;;;;;16.35;7.55;;;4.60;1.00;;;;;;5052701;28;20156;-76
2021/01/28 04:48:18;;;;;;;23.40;9.73;;;4.60;1.00;;;;;;5053041;28;20166;-76
2021/01/28 04:50:44;;;;;;;18.13;8.73;;;;;;;;;;5053084;28;20167;-76
2021/01/28 04:53:34;;;;;;;18.08;8.80;;;4.50;1.00;;;;;;5053172;28;20229;-76
2021/01/28 04:56:07;;;;;;;18.52;8.68;;;4.50;1.00;;;;;;5052927;28;20175;-77
2021/01/28 04:58:33;;;;;;;22.83;9.35;;;4.60;1.00;;;;;;5052989;28;20160;-77
2021/01/28 05:00:59;;;;;;;18.20;8.43;;;;;;;;;;5052898;28;20213;-77
2021/01/28 05:03:30;;;;;;;16.57;7.70;;;4.60;1.00;;;;;;5052877;28;20624;-78
2021/01/28 05:05:59;;;;;;;24.98;10.63;;;4.70;1.00;;;;;;5053004;28;20414;-76
2021/01/28 05:08:25;;;;;;;22.40;10.25;;;;;;;;;;5052881;28;20186;-76
2021/01/28 05:10:53;;;;;;;21.83;9.30;;;4.70;1.00;;;;;;5062136;28;20206;-76
2021/01/28 05:13:37;;;;;;;27.10;8.40;;;4.80;1.00;;;;;;5072185;28;20444;-76
2021/01/28 05:16:33;;;;;;;20.33;8.20;;;4.70;1.00;;;;;;5072733;28;20641;-76
2021/01/28 05:19:02;;;;;;;19.00;8.80;;;4.80;1.00;;;;;;5072685;28;20603;-76
2021/01/28 05:21:48;;;;;;;20.85;9.07;;;4.80;1.00;;;;;;5073230;28;20171;-77
2021/01/28 05:24:31;;;;;;;16.67;8.80;;;4.80;1.00;;;;;;5072666;28;20238;-77
2021/01/28 05:27:11;;;;;;;26.17;9.70;;;4.80;1.00;;;;;;5072840;28;20186;-77
2021/01/28 05:29:40;;;;;;;21.85;9.15;;;4.90;1.00;;;;;;5073430;28;20237;-77
2021/01/28 05:32:29;;;;;;;19.55;8.40;;;4.80;1.00;;;;;;5074095;28;20610;-77
2021/01/28 05:35:31;;;;;;;33.28;9.38;;;4.90;1.00;;;;;;5076721;28;20147;-77
2021/01/28 05:38:26;;;;;;;23.25;8.98;;;4.90;1.00;;;;;;5075922;28;20252;-76
2021/01/28 05:41:00;;;;;;;19.67;7.28;;;5.00;1.00;;;;;;5076685;28;20540;-76
2021/01/28 05:43:28;;;;;;;22.63;9.25;;;5.00;1.00;;;;;;5061847;28;20606;-76
2021/01/28 05:46:17;;;;;;;18.90;8.43;;;5.00;1.00;;;;;;5056041;28;20176;-76
2021/01/28 05:48:44;;;;;;;19.48;8.73;;;5.00;1.00;;;;;;5056079;28;20594;-76
2021/01/28 05:51:21;;;;;;;15.43;7.68;;;5.00;1.00;;;;;;5075588;28;20237;-76
2021/01/28 05:54:04;;;;;;;20.05;9.15;;;5.10;1.00;;;;;;5059392;28;20225;-76
2021/01/28 05:56:34;;;;;;;19.08;8.18;;;5.10;1.00;;;;;;5055978;28;20525;-75
2021/01/28 05:59:08;;;;;;;16.38;7.32;;;5.10;1.00;;;;;;5056209;28;20156;-77
2021/01/28 06:02:06;;;;;;;15.60;6.65;;;5.10;1.00;;;;;;5055687;28;20192;-76
2021/01/28 06:04:50;;;;;;;15.77;8.32;;;5.00;1.00;;;;;;5074833;28;20263;-77
2021/01/28 06:07:28;;;;;;;15.60;8.02;;;5.00;1.00;;;;;;5072797;28;20209;-76
2021/01/28 06:10:07;;;;;;;17.58;7.90;;;5.10;1.00;;;;;;5066370;28;20214;-76
2021/01/28 06:13:02;;;;;;;13.63;6.25;;;5.10;1.00;;;;;;5076010;28;20483;-76
2021/01/28 06:16:17;;;;;;;15.77;7.65;;;5.10;1.00;;;;;;5075817;28;20210;-77
2021/01/28 06:19:06;;;;;;;14.20;6.85;;;5.10;1.00;;;;;;4944508;29;20249;-77
2021/01/28 06:21:45;;;;;;;12.88;5.65;;;5.10;1.00;;;;;;4955664;29;20187;-76
2021/01/28 06:24:43;;;;;;;15.15;6.50;;;5.10;1.00;;;;;;4950151;29;20342;-76
2021/01/28 06:27:45;;;;;;;18.08;7.13;;;5.10;1.00;;;;;;4938984;29;20207;-76
2021/01/28 06:30:29;;;;;;;11.02;5.82;;;5.10;1.00;;;;;;4944065;29;20520;-77
2021/01/28 06:33:07;;;;;;;17.97;7.17;;;5.10;1.00;;;;;;4955163;29;20616;-77
2021/01/28 06:35:53;;;;;;;12.95;6.00;;;5.10;1.00;;;;;;4955190;29;20407;-77
2021/01/28 06:38:28;;;;;;;17.77;7.28;;;;;;;;;;4952543;28;20229;-78
2021/01/28 06:40:57;;;;;;;11.43;6.00;;;5.20;1.00;;;;;;4955992;28;20728;-77
2021/01/28 06:43:49;;;;;;;12.57;5.85;;;5.10;1.00;;;;;;4954641;29;20529;-78
2021/01/28 06:46:39;;;;;;;17.88;5.88;;;7.00;1.00;;;;;;4893042;29;20685;-78
2021/01/28 06:49:31;;;;;;;11.63;6.15;;;5.20;1.00;;;;;;4898000;29;20611;-78
2021/01/28 06:52:05;;;;;;;14.73;5.72;;;5.20;1.00;;;;;;4889449;29;20224;-77
2021/01/28 06:54:41;;;;;;;11.60;6.20;;;5.30;1.00;;;;;;4906527;29;20236;-77
2021/01/28 06:57:46;;;;;;;10.60;5.38;;;5.30;1.00;;;;;;4990510;28;20545;-77
2021/01/28 07:00:32;;;;;;;9.27;5.30;;;5.30;1.00;;;;;;5010570;28;20608;-77
2021/01/28 07:03:03;;;;;;;10.48;5.40;;;5.40;1.00;;;;;;4994882;28;20240;-78
2021/01/28 07:05:29;;;;;;;10.63;6.00;;;;;;;;;;4992876;28;20625;-77
2021/01/28 07:08:09;;;;;;;13.00;6.70;;;5.40;1.00;;;;;;4993385;28;20212;-77
2021/01/28 07:10:38;;;;;;;11.77;6.05;;;5.40;1.00;;;;;;4991861;28;20449;-78
2021/01/28 07:13:07;;;;;;;10.73;5.83;;;5.40;1.00;;;;;;4992328;28;20194;-78
2021/01/28 07:15:33;;;;;;;14.67;6.67;;;;;;;;;;4992960;28;20409;-77
2021/01/28 07:18:24;;;;;;;9.83;5.80;;;5.40;1.00;;;;;;4992848;28;20405;-78
2021/01/28 07:21:25;;;;;;;14.63;6.13;;;5.40;1.00;;;;;;4990765;28;20421;-78
2021/01/28 07:24:05;;;;;;;9.27;5.10;;;5.40;1.00;;;;;;5050005;28;20795;-76
2021/01/28 07:27:04;;;;;;;11.10;5.35;;;5.40;1.00;;;;;;5066193;28;21009;-76
2021/01/28 07:29:53;;;;;;;10.77;4.90;;;5.40;1.00;;;;;;5008863;28;20280;-76
2021/01/28 07:32:22;;;;;;;13.60;5.60;;;5.40;1.00;;;;;;4992698;28;20221;-76
2021/01/28 07:35:24;;;;;;;8.93;5.00;;;5.40;1.00;;;;;;5003325;28;20177;-76
2021/01/28 07:37:50;;;;;;;10.98;5.53;;;;;;;;;;5001064;28;20481;-77
2021/01/28 07:40:53;;;;;;;9.35;5.38;;;5.40;1.00;;;;;;4996817;28;20235;-77
2021/01/28 07:43:30;;;;;;;8.95;5.25;;;5.50;1.00;;;;;;4992239;28;20200;-77
2021/01/28 07:46:16;;;;;;;7.13;4.65;;;5.50;1.00;;;;;;4991885;28;20212;-77
2021/01/28 07:48:45;;;;;;;8.33;5.07;;;5.50;1.00;;;;;;4992462;28;20165;-78
2021/01/28 07:51:48;;;;;;;9.03;5.17;;;5.50;1.00;;;;;;4992782;28;20460;-77
2021/01/28 07:58:31;;;;;;;7.35;4.15;;;5.50;1.00;;;;;;4995199;28;20485;-77
2021/01/28 08:04:28;;;;;;;9.15;4.35;;;5.50;1.00;;;;;;4922706;29;20415;-76
2021/01/28 08:07:43;;;;;;;7.53;4.38;;;5.50;1.00;;;;;;4970260;28;20186;-77
2021/01/28 08:10:38;;;;;;;5.68;3.90;;;5.50;1.00;;;;;;4971337;28;20196;-76
2021/01/28 08:13:42;;;;;;;8.50;4.70;;;5.50;1.00;;;;;;4959608;28;20674;-76
2021/01/28 08:16:16;;;;;;;6.53;3.95;;;5.60;1.00;;;;;;4972351;28;20730;-76
2021/01/28 08:18:47;;;;;;;8.07;3.78;;;5.60;1.00;;;;;;4966067;28;20179;-78
2021/01/28 08:21:20;;;;;;;6.78;3.90;;;5.60;1.00;;;;;;4953289;29;20191;-77
2021/01/28 08:23:47;;;;;;;7.17;3.90;;;5.70;1.00;;;;;;4969083;28;20800;-77
2021/01/28 08:26:24;;;;;;;8.10;4.40;;;5.70;1.00;;;;;;4967575;28;20464;-77
2021/01/28 08:29:08;;;;;;;5.10;3.50;;;5.70;1.00;;;;;;4972073;28;20425;-77
2021/01/28 08:32:01;;;;;;;6.70;4.30;;;5.80;1.00;;;;;;4972141;28;20552;-77
2021/01/28 08:34:29;;;;;;;7.03;3.95;;;5.80;1.00;;;;;;4983766;28;20500;-77
2021/01/28 08:37:03;;;;;;;6.80;3.60;;;5.80;1.00;;;;;;5053236;28;20152;-77
2021/01/28 08:39:51;;;;;;;8.00;3.70;;;5.80;1.00;;;;;;5057304;28;20537;-77
2021/01/28 08:49:20;;;;;;;4.40;3.60;;;6.00;1.00;;;;;;5073625;28;20439;-77
2021/01/28 08:55:18;;;;;;;4.90;3.07;;;6.00;1.00;;;;;;5060068;28;20947;-77
2021/01/28 09:01:05;;;;;;;4.57;3.43;;;6.10;1.00;;;;;;5057674;28;20818;-78
2021/01/28 09:03:54;;;;;;;3.23;2.80;;;;;;;;;;5071902;28;20416;-77
2021/01/28 09:06:21;;;;;;;4.43;3.57;;;;;;;;;;5065121;28;20584;-77
2021/01/28 09:09:13;;;;;;;4.20;2.80;;;6.20;1.00;;;;;;5067197;28;20394;-77
2021/01/28 09:11:50;;;;;;;4.73;3.00;;;6.30;1.00;;;;;;5067166;28;20462;-77
2021/01/28 09:14:35;;;;;;;5.90;3.20;;;6.30;1.00;;;;;;5052422;28;20386;-77
2021/01/28 09:17:24;;;;;;;8.57;3.10;;;;;;;;;;5071685;28;20413;-78
2021/01/28 09:20:03;;;;;;;5.60;3.03;;;6.40;1.00;;;;;;5071244;28;20473;-77
2021/01/28 09:22:35;;;;;;;3.80;3.03;;;6.40;1.00;;;;;;5071254;28;20946;-77
2021/01/28 09:25:12;;;;;;;4.30;3.10;;;6.40;1.00;;;;;;5072334;28;20904;-77
2021/01/28 09:27:39;;;;;;;3.77;2.60;;;;;;;;;;5071966;28;20928;-77
2021/01/28 09:30:11;;;;;;;5.30;3.17;;;;;;;;;;5072289;28;20476;-77
2021/01/28 09:32:37;;;;;;;4.50;3.17;;;;;;;;;;5065459;28;20464;-77
2021/01/28 09:35:17;;;;;;;3.57;2.70;;;6.40;1.00;;;;;;5074731;28;20767;-78
2021/01/28 09:38:02;;;;;;;4.83;2.93;;;6.40;1.00;;;;;;5076364;28;20770;-77
2021/01/28 09:40:37;;;;;;;2.97;2.50;;;6.40;1.00;;;;;;5071174;28;20809;-77
2021/01/28 09:43:32;;;;;;;3.00;2.70;;;6.40;1.00;;;;;;5052382;28;20447;-77
2021/01/28 09:46:18;;;;;;;2.90;2.10;;;6.50;1.00;;;;;;5051944;28;20394;-76
2021/01/28 09:48:48;;;;;;;3.60;2.70;;;6.50;1.00;;;;;;5052387;28;20402;-77
2021/01/28 09:51:25;;;;;;;6.17;2.70;;;6.50;1.00;;;;;;5052018;28;20975;-77
2021/01/28 09:54:22;;;;;;;3.53;2.50;;;6.50;1.00;;;;;;5051996;28;20429;-76
2021/01/28 09:56:47;;;;;;;2.50;2.30;;;6.50;1.00;;;;;;5064367;28;20448;-76
2021/01/28 09:59:15;;;;;;;2.17;1.90;;;;;;;;;;5070983;28;20421;-76
2021/01/28 10:01:44;;;;;;;4.37;2.70;;;6.60;1.00;;;;;;5063113;28;20597;-76
2021/01/28 10:04:11;;;;;;;3.07;1.97;;;6.70;1.00;;;;;;5073888;28;20412;-76
2021/01/28 10:06:38;;;;;;;2.87;2.40;;;6.70;1.00;;;;;;5071654;28;20401;-76
2021/01/28 10:09:05;;;;;;;4.00;2.50;;;6.80;1.00;;;;;;5059082;28;20828;-76
2021/01/28 10:11:31;;;;;;;1.70;1.60;;;6.70;1.00;;;;;;5052147;28;20438;-76
2021/01/28 10:13:57;;;;;;;2.60;2.40;;;6.80;1.00;;;;;;5052076;28;20395;-76
2021/01/28 10:16:22;;;;;;;8.67;2.13;;;6.80;1.00;;;;;;5052528;28;20387;-76
2021/01/28 10:18:48;;;;;;;1.97;1.87;;;;;;;;;;5057632;28;20444;-76
2021/01/28 10:21:14;;;;;;;1.97;1.80;;;;;;;;;;5075627;28;20258;-76
2021/01/28 10:23:40;;;;;;;2.27;2.13;;;;;;;;;;5073278;28;20402;-76
2021/01/28 10:26:06;;;;;;;2.30;2.10;;;6.80;1.00;;;;;;5065299;28;20446;-77
2021/01/28 10:28:32;;;;;;;1.93;1.80;;;;;;;;;;5060550;28;20434;-77
2021/01/28 10:30:59;;;;;;;2.10;1.93;;;;;;;;;;5062540;28;20186;-77
2021/01/28 10:33:28;;;;;;;1.70;1.57;;;6.90;1.00;;;;;;5062465;28;20449;-76
2021/01/28 10:35:54;;;;;;;4.03;2.60;;;6.80;1.00;;;;;;5058882;28;20508;-76
2021/01/28 10:38:19;;;;;;;2.23;2.03;;;;;;;;;;5055122;28;20462;-76
2021/01/28 10:40:45;;;;;;;2.17;2.03;;;;;;;;;;5055829;28;20834;-76
2021/01/28 10:43:11;;;;;;;2.13;1.90;;;;;;;;;;5055268;28;20390;-77
2021/01/28 10:45:40;;;;;;;1.90;1.77;;;6.90;1.00;;;;;;5057126;28;20908;-78
2021/01/28 10:48:07;;;;;;;3.10;2.30;;;6.80;1.00;;;;;;5055131;28;20401;-77
2021/01/28 10:50:34;;;;;;;2.40;2.17;;;6.90;1.00;;;;;;5073445;28;20434;-77
2021/01/28 10:53:00;;;;;;;3.27;2.03;;;6.80;1.00;;;;;;5064715;28;20465;-77
2021/01/28 10:55:27;;;;;;;9.30;2.47;;;6.90;1.00;;;;;;5065742;28;20412;-76
2021/01/28 10:57:53;;;;;;;2.03;1.93;;;6.90;1.00;;;;;;5075070;28;20900;-76
2021/01/28 11:00:20;;;;;;;3.17;2.87;;;6.90;1.00;;;;;;5074860;28;20390;-76
2021/01/28 11:02:45;;;;;;;3.73;2.40;;;6.90;1.00;;;;;;5074892;28;20926;-76
2021/01/28 11:05:24;;;;;;;2.83;2.50;;;7.00;1.00;;;;;;5075061;28;20397;-76
2021/01/28 11:07:50;;;;;;;4.43;2.10;;;7.00;1.00;;;;;;5062275;28;20527;-76
2021/01/28 11:10:16;;;;;;;2.90;2.20;;;7.00;1.00;;;;;;5055137;28;20486;-76
2021/01/28 11:12:57;;;;;;;3.10;2.10;;;7.00;1.00;;;;;;5054690;28;20180;-76
2021/01/28 11:15:26;;;;;;;2.50;2.30;;;7.00;1.00;;;;;;5059593;28;20870;-76
2021/01/28 11:17:52;;;;;;;1.57;1.47;;;7.00;1.00;;;;;;5054343;28;20477;-76
2021/01/28 11:20:19;;;;;;;2.20;2.00;;;7.00;1.00;;;;;;5054364;28;20873;-76
2021/01/28 11:22:45;;;;;;;3.97;2.33;;;7.10;1.00;;;;;;5054451;28;20191;-76
2021/01/28 11:25:18;;;;;;;4.70;2.57;;;7.10;1.00;;;;;;5054743;28;20414;-77
2021/01/28 11:30:42;;;;;;;3.00;2.23;;;7.30;1.00;;;;;;5012083;28;20408;-76
2021/01/28 11:33:08;;;;;;;2.40;2.20;;;7.30;1.00;;;;;;5012239;28;20455;-76
2021/01/28 11:35:36;;;;;;;2.20;2.00;;;7.30;1.00;;;;;;5012405;28;20471;-76
2021/01/28 11:38:04;;;;;;;2.87;2.67;;;7.30;1.00;;;;;;5012420;28;20415;-76
2021/01/28 11:40:32;;;;;;;5.13;2.80;;;7.40;1.00;;;;;;5021740;28;20478;-77
2021/01/28 11:42:57;;;;;;;2.23;2.00;;;7.40;1.00;;;;;;5031955;28;20438;-77
2021/01/28 11:45:29;;;;;;;5.30;2.80;;;7.40;1.00;;;;;;5031295;28;20419;-76
2021/01/28 11:47:55;;;;;;;4.67;2.87;;;;;;;;;;5031967;28;20188;-76
2021/01/28 11:50:21;;;;;;;6.33;2.20;;;7.40;1.00;;;;;;5031741;28;20780;-76
2021/01/28 11:52:48;;;;;;;2.43;2.23;;;;;;;;;;5031524;28;20454;-76
2021/01/28 11:55:19;;;;;;;2.63;2.40;;;7.50;1.00;;;;;;5028118;28;20251;-77
2021/01/28 11:57:45;;;;;;;2.77;2.57;;;;;;;;;;5021265;28;20481;-78
2021/01/28 12:00:13;;;;;;;2.63;2.43;;;7.50;1.00;;;;;;5031649;28;20403;-77
2021/01/28 12:02:40;;;;;;;2.17;1.97;;;;;;;;;;5031348;28;20554;-77
2021/01/28 12:05:07;;;;;;;2.50;2.17;;;7.60;1.00;;;;;;5031669;28;20493;-77
2021/01/28 12:07:33;;;;;;;2.70;2.10;;;7.60;1.00;;;;;;5054076;28;20788;-77
2021/01/28 12:09:59;;;;;;;7.00;2.40;;;;;;;;;;5073928;28;20424;-76
2021/01/28 12:12:24;;;;;;;3.80;2.47;;;7.50;1.00;;;;;;5073597;28;20216;-76
2021/01/28 12:14:59;;;;;;;2.00;1.80;;;7.60;1.00;;;;;;5059543;28;20441;-76
2021/01/28 12:17:25;;;;;;;2.40;2.20;;;7.60;1.00;;;;;;5070625;28;20241;-76
2021/01/28 12:19:51;;;;;;;5.67;2.60;;;;;;;;;;5075162;28;20456;-76
2021/01/28 12:22:18;;;;;;;2.30;1.80;;;;;;;;;;5081035;28;20408;-76
2021/01/28 12:24:56;;;;;;;2.43;2.13;;;;;;;;;;5063867;28;20496;-76
2021/01/28 12:27:22;;;;;;;2.40;2.20;;;;;;;;;;5063177;28;20430;-77
2021/01/28 12:29:51;;;;;;;2.50;2.30;;;7.70;1.00;;;;;;5092357;28;20416;-77
2021/01/28 12:32:23;;;;;;;4.70;1.70;;;;;;;;;;5078095;28;20962;-77
2021/01/28 12:38:11;;;;;;;2.90;2.40;;;7.80;1.00;;;;;;5053522;28;20401;-77
2021/01/28 12:41:18;;;;;;;2.60;2.40;;;7.80;1.00;;;;;;5052939;28;20433;-76
2021/01/28 12:44:07;;;;;;;3.00;2.30;;;7.80;1.00;;;;;;5063007;28;20547;-76
2021/01/28 12:46:32;;;;;;;2.73;2.23;;;7.80;1.00;;;;;;5073837;28;20390;-77
2021/01/28 12:49:07;;;;;;;2.30;2.07;;;7.80;1.00;;;;;;5068320;28;20482;-78
2021/01/28 12:51:33;;;;;;;2.40;1.97;;;;;;;;;;5053519;28;20556;-77
2021/01/28 12:54:21;;;;;;;2.40;2.17;;;7.80;1.00;;;;;;5053298;28;20421;-77
2021/01/28 12:56:48;;;;;;;2.63;2.40;;;7.80;1.00;;;;;;5053928;28;20391;-76
2021/01/28 13:02:49;;;;;;;2.57;2.37;;;7.80;1.00;;;;;;5061901;28;21001;-78
2021/01/28 13:08:37;;;;;;;4.43;2.77;;;7.80;1.00;;;;;;5062461;28;20476;-77
2021/01/28 13:11:02;;;;;;;2.83;2.63;;;7.80;1.00;;;;;;5053443;28;20394;-75
2021/01/28 13:13:37;;;;;;;3.90;2.80;;;7.80;1.00;;;;;;5053303;28;20226;-75
2021/01/28 13:16:07;;;;;;;2.83;2.63;;;7.80;1.00;;;;;;5053597;28;20187;-76
2021/01/28 13:19:12;;;;;;;3.93;3.20;;;7.80;1.00;;;;;;5053603;28;20420;-76
2021/01/28 13:21:43;;;;;;;3.27;2.70;;;7.70;1.00;;;;;;5053475;28;20413;-76
2021/01/28 13:24:25;;;;;;;4.17;2.70;;;7.70;1.00;;;;;;5064997;28;20420;-77
2021/01/28 13:30:54;;;;;;;4.87;2.40;;;7.80;1.00;;;;;;5053170;28;20398;-80
2021/01/28 13:40:05;;;;;;;3.00;2.50;;;7.80;1.00;;;;;;5052732;28;20519;-79
2021/01/28 13:42:43;;;;;;;9.53;3.37;;;7.90;1.00;;;;;;5053602;28;20924;-76
2021/01/28 13:45:11;;;;;;;4.50;3.03;;;7.90;1.00;;;;;;5056594;28;20409;-76
2021/01/28 13:47:44;;;;;;;3.53;3.10;;;;;;;;;;5059031;28;20413;-77
2021/01/28 13:50:55;;;;;;;3.20;2.57;;;8.00;1.00;;;;;;5069677;28;21180;-76
2021/01/28 13:53:25;;;;;;;3.50;2.63;;;;;;;;;;5077015;28;20473;-76
2021/01/28 13:56:07;;;;;;;3.17;2.70;;;8.10;1.00;;;;;;5075389;28;20977;-77
2021/01/28 13:58:37;;;;;;;6.07;3.27;;;8.00;1.00;;;;;;5056925;28;20423;-84
2021/01/28 14:01:07;;;;;;;6.90;3.47;;;8.10;1.00;;;;;;5070219;28;20409;-86
2021/01/28 14:03:43;;;;;;;3.93;2.90;;;8.10;1.00;;;;;;5075966;28;20988;-84
2021/01/28 14:06:13;;;;;;;5.80;3.37;;;8.10;1.00;;;;;;5057341;28;20912;-84
2021/01/28 14:08:45;;;;;;;5.03;3.57;;;;;;;;;;5056913;28;20402;-88
2021/01/28 14:11:11;;;;;;;5.10;3.33;;;8.20;1.00;;;;;;5055866;28;20417;-76
2021/01/28 14:13:37;;;;;;;5.50;3.40;;;8.30;1.00;;;;;;5056469;28;20497;-74
2021/01/28 14:16:02;;;;;;;4.10;2.73;;;8.30;1.00;;;;;;5070257;28;20258;-74
2021/01/28 14:18:28;;;;;;;4.73;3.57;;;8.40;1.00;;;;;;5073087;28;20179;-77
2021/01/28 14:20:55;;;;;;;10.90;4.07;;;;;;;;;;5076037;28;20155;-77
2021/01/28 14:23:25;;;;;;;4.47;3.40;;;8.40;1.00;;;;;;5075576;28;20504;-77
2021/01/28 14:25:51;;;;;;;3.87;2.80;;;8.50;1.00;;;;;;5076537;28;20385;-76
2021/01/28 14:31:38;;;;;;;5.43;3.57;;;8.60;1.00;;;;;;5076762;28;20198;-87
2021/01/28 14:34:04;;;;;;;5.20;3.23;;;;;;;;;;5074662;28;20429;-78
2021/01/28 14:36:31;;;;;;;3.90;3.40;;;8.70;1.00;;;;;;5075377;28;20159;-78
2021/01/28 14:38:57;;;;;;;5.70;3.43;;;;;;;;;;5075033;28;20432;-77
2021/01/28 14:41:28;;;;;;;3.73;3.10;;;;;;;;;;5075475;28;20408;-77
2021/01/28 14:43:54;;;;;;;11.53;3.97;;;;;;;;;;5075413;28;20398;-84
2021/01/28 14:46:20;;;;;;;5.00;3.40;;;9.10;1.00;;;;;;5074468;28;20409;-84